Time;durP1;ratioP1;P1;durP2;ratioP2;P2;SDS_P1;SDS_P2;PMS_P1;PMS_P2;Temp;Humidity;BMP_temperature;BMP_pressure;BME280_temperature;BME280_humidity;BME280_pressure;Samples;Min_cycle;Max_cycle;Signal;HPM_P1;HPM_P2
2022/05/20 11:53:03;;;;;;;9.73;4.65;;;18.40;56.90;;;;;;4947592;28;20088;-71
2022/05/20 11:55:39;;;;;;;7.35;3.78;;;18.50;59.80;;;;;;4954232;28;20129;-71
2022/05/20 11:58:57;;;;;;;7.93;4.15;;;18.40;57.80;;;;;;4944810;28;20046;-74
2022/05/20 12:01:25;;;;;;;7.93;4.72;;;18.40;58.40;;;;;;4974625;28;20056;-73
2022/05/20 12:04:07;;;;;;;11.70;5.22;;;18.50;60.10;;;;;;4956058;28;20048;-74
2022/05/20 12:07:10;;;;;;;12.07;5.68;;;18.50;60.80;;;;;;4969472;28;20034;-74
2022/05/20 12:09:51;;;;;;;7.55;4.72;;;18.60;61.90;;;;;;4911301;28;20046;-72
2022/05/20 12:12:24;;;;;;;8.32;5.03;;;18.80;61.60;;;;;;4981758;28;20386;-74
2022/05/20 12:15:13;;;;;;;8.80;4.15;;;18.70;57.10;;;;;;4962392;28;20115;-71
2022/05/20 12:18:17;;;;;;;8.35;4.97;;;18.50;55.90;;;;;;4977677;28;20053;-76
2022/05/20 12:24:29;;;;;;;8.95;4.07;;;18.60;58.60;;;;;;4910538;28;20096;-72
2022/05/20 12:26:56;;;;;;;10.38;4.50;;;18.60;57.10;;;;;;4949967;28;20089;-72
2022/05/20 12:29:37;;;;;;;8.32;4.53;;;18.40;56.80;;;;;;4965604;28;20381;-70
2022/05/20 12:32:15;;;;;;;8.82;4.47;;;18.20;57.30;;;;;;4979550;28;20121;-73
2022/05/20 12:34:45;;;;;;;10.63;4.35;;;18.30;58.10;;;;;;4968831;28;20046;-73
2022/05/20 12:37:43;;;;;;;7.47;4.07;;;18.10;57.60;;;;;;4934110;28;20054;-75
2022/05/20 12:40:35;;;;;;;10.07;4.68;;;18.10;58.50;;;;;;4948156;28;20042;-74
2022/05/20 12:43:11;;;;;;;12.18;4.93;;;17.90;57.00;;;;;;4971319;28;20550;-71
2022/05/20 12:46:17;;;;;;;10.38;6.13;;;17.90;59.30;;;;;;4949479;28;20034;-74
2022/05/20 12:49:20;;;;;;;10.48;5.38;;;18.00;61.80;;;;;;4914051;29;20074;-74
2022/05/20 12:51:48;;;;;;;12.20;6.22;;;18.20;60.60;;;;;;4917658;29;20393;-72
2022/05/20 12:54:26;;;;;;;13.48;6.32;;;18.10;59.40;;;;;;4933795;28;20065;-72
2022/05/20 12:57:04;;;;;;;8.95;5.78;;;18.20;60.80;;;;;;4949099;28;20034;-75
2022/05/20 12:59:30;;;;;;;11.38;6.15;;;18.10;58.70;;;;;;4934203;28;20471;-72
2022/05/20 13:02:07;;;;;;;10.98;6.40;;;18.10;59.00;;;;;;4966684;28;20038;-71
2022/05/20 13:04:46;;;;;;;11.57;6.43;;;17.90;59.40;;;;;;4951755;28;20038;-75
2022/05/20 13:07:17;;;;;;;10.07;6.53;;;17.80;59.20;;;;;;4950170;28;20049;-81
2022/05/20 13:09:46;;;;;;;11.75;5.68;;;17.70;58.90;;;;;;4963854;28;20069;-78
2022/05/20 13:12:20;;;;;;;10.68;5.97;;;17.60;58.70;;;;;;4965960;28;20592;-76
2022/05/20 13:15:54;;;;;;;;;;;;;;;;;;;;;
2022/05/20 13:18:31;;;;;;;6.80;5.30;;;17.70;59.70;;;;;;4861234;29;20112;-77
2022/05/20 13:21:16;;;;;;;11.73;6.90;;;17.60;60.70;;;;;;4921121;28;20057;-73
2022/05/20 13:23:45;;;;;;;15.43;6.90;;;17.60;61.80;;;;;;4946468;28;20512;-66
2022/05/20 13:26:22;;;;;;;13.50;7.18;;;17.60;62.80;;;;;;4960147;28;20051;-69
2022/05/20 13:28:48;;;;;;;9.63;6.85;;;17.50;63.40;;;;;;4964480;28;20042;-69
2022/05/20 13:31:25;;;;;;;11.27;7.18;;;17.50;63.80;;;;;;4952213;28;20054;-75
2022/05/20 13:33:51;;;;;;;;;;;17.50;68.00;;;;;;4952105;28;20050;-74
2022/05/20 13:36:21;;;;;;;12.43;7.65;;;17.40;73.20;;;;;;4959206;28;19920;-72
2022/05/20 13:39:00;;;;;;;13.07;7.97;;;17.30;70.60;;;;;;4947916;28;20360;-73
2022/05/20 13:41:30;;;;;;;15.18;7.75;;;17.30;73.90;;;;;;4944284;28;20053;-74
2022/05/20 13:43:59;;;;;;;13.07;7.80;;;17.30;74.40;;;;;;4943881;28;20498;-74
2022/05/20 13:49:16;;;;;;;16.48;10.13;;;17.20;75.10;;;;;;4954216;28;20623;-73
2022/05/20 13:51:47;;;;;;;20.80;12.05;;;17.10;75.20;;;;;;4974679;28;20066;-73
2022/05/20 13:54:40;;;;;;;22.45;12.75;;;17.00;76.60;;;;;;4974762;28;20061;-72
2022/05/20 13:57:15;;;;;;;19.92;11.63;;;16.90;79.90;;;;;;4941374;28;20055;-73
2022/05/20 13:59:42;;;;;;;18.70;11.27;;;16.90;79.40;;;;;;4942529;28;20133;-72
2022/05/20 14:02:08;;;;;;;20.02;12.02;;;16.80;80.30;;;;;;4958393;28;20050;-72
2022/05/20 14:04:52;;;;;;;23.65;11.27;;;16.70;80.50;;;;;;4958221;28;20049;-72
2022/05/20 14:07:36;;;;;;;16.17;8.95;;;16.60;79.50;;;;;;4941933;28;20106;-72
2022/05/20 14:10:20;;;;;;;21.35;10.90;;;16.50;79.80;;;;;;4958112;28;20109;-72
2022/05/20 14:12:50;;;;;;;14.43;10.50;;;16.50;83.40;;;;;;4942291;28;20130;-72
2022/05/20 14:15:24;;;;;;;16.58;10.07;;;16.50;81.20;;;;;;4958336;28;20046;-72
2022/05/20 14:17:50;;;;;;;15.73;9.88;;;16.50;81.30;;;;;;4958163;28;20047;-73
2022/05/20 14:20:17;;;;;;;18.10;9.95;;;16.40;81.20;;;;;;4958208;28;20061;-73
2022/05/20 14:22:44;;;;;;;12.95;9.68;;;16.30;80.00;;;;;;4958092;28;20141;-73
2022/05/20 14:25:48;;;;;;;17.77;11.20;;;16.30;79.50;;;;;;4942176;28;20130;-71
2022/05/20 14:28:17;;;;;;;18.15;11.60;;;16.20;80.80;;;;;;4957228;28;20053;-72
2022/05/20 14:30:59;;;;;;;18.48;11.25;;;16.10;80.50;;;;;;4958015;28;20415;-72
2022/05/20 14:34:21;;;;;;;13.65;9.82;;;16.10;80.00;;;;;;4941431;28;20046;-73
2022/05/20 14:37:29;;;;;;;16.35;11.85;;;16.00;80.80;;;;;;4880774;29;20095;-73
2022/05/20 14:40:28;;;;;;;15.45;11.30;;;16.00;86.30;;;;;;4881131;29;20070;-76
2022/05/20 14:43:46;;;;;;;15.35;10.88;;;15.80;86.10;;;;;;4880525;29;20044;-76
2022/05/20 14:47:13;;;;;;;13.73;10.25;;;15.80;83.70;;;;;;4880959;29;20048;-73
2022/05/20 14:49:06;;;;;;;17.20;9.68;;;15.70;83.80;;;;;;4895857;29;20119;-74
2022/05/20 14:51:32;;;;;;;16.70;9.90;;;15.50;83.20;;;;;;4923662;28;20137;-75
2022/05/20 15:01:30;;;;;;;12.88;8.98;;;15.20;86.90;;;;;;4933895;29;20039;-76
2022/05/20 15:03:56;;;;;;;20.30;9.57;;;15.10;87.00;;;;;;4917854;29;20540;-78
2022/05/20 15:06:26;;;;;;;11.60;7.82;;;15.00;86.90;;;;;;4918153;29;20183;-78
2022/05/20 15:08:53;;;;;;;11.15;7.78;;;14.80;86.10;;;;;;4902095;29;20035;-77
2022/05/20 15:11:27;;;;;;;14.10;7.43;;;14.70;85.00;;;;;;4918171;29;20532;-77
2022/05/20 15:13:52;;;;;;;14.70;8.57;;;14.50;85.90;;;;;;4902447;29;20451;-77
2022/05/20 15:16:18;;;;;;;12.77;8.32;;;14.40;86.20;;;;;;4902118;29;20072;-77
2022/05/20 15:18:44;;;;;;;14.13;7.47;;;14.30;88.70;;;;;;4918038;29;20090;-77
2022/05/20 15:21:16;;;;;;;20.83;8.05;;;14.20;86.90;;;;;;4902318;29;20098;-78
2022/05/20 15:23:51;;;;;;;13.32;8.20;;;14.20;87.10;;;;;;4902242;29;20083;-77
2022/05/20 15:26:24;;;;;;;12.70;7.70;;;14.10;87.50;;;;;;4902083;29;20043;-79
2022/05/20 15:29:03;;;;;;;11.15;8.07;;;14.00;87.80;;;;;;4947397;28;20105;-78
2022/05/20 15:35:12;;;;;;;14.02;8.80;;;13.90;89.80;;;;;;4956547;28;20054;-80
2022/05/20 15:37:41;;;;;;;;;;;13.80;89.30;;;;;;4941031;28;20046;-74
2022/05/20 15:44:00;;;;;;;12.90;8.93;;;13.80;89.90;;;;;;4973140;28;20069;-75
2022/05/20 15:46:33;;;;;;;13.38;9.20;;;13.80;90.00;;;;;;4957383;28;20034;-76
2022/05/20 15:48:58;;;;;;;13.77;9.50;;;13.70;90.10;;;;;;4940569;28;20082;-77
2022/05/20 15:51:25;;;;;;;15.32;10.07;;;13.70;90.00;;;;;;4941259;28;20043;-79
2022/05/20 15:53:52;;;;;;;20.33;10.15;;;13.60;90.70;;;;;;4940964;28;20090;-76
2022/05/20 15:56:21;;;;;;;16.90;10.23;;;13.60;90.80;;;;;;4946630;28;20047;-75
2022/05/20 15:58:50;;;;;;;16.13;10.90;;;13.60;90.50;;;;;;4945381;28;20542;-78
2022/05/20 16:01:15;;;;;;;15.93;11.80;;;13.60;91.10;;;;;;4925603;29;20050;-78
2022/05/20 16:03:41;;;;;;;14.93;11.07;;;13.60;91.10;;;;;;4935945;28;20038;-74
2022/05/20 16:06:12;;;;;;;18.58;12.38;;;13.60;91.20;;;;;;4928700;28;20129;-77
2022/05/20 16:08:38;;;;;;;20.77;11.95;;;13.60;91.30;;;;;;4944226;28;20489;-77
2022/05/20 16:11:09;;;;;;;16.92;11.68;;;13.60;91.20;;;;;;4941853;28;20089;-78
2022/05/20 16:13:35;;;;;;;15.85;12.40;;;13.60;91.20;;;;;;4943540;28;20117;-81
2022/05/20 16:16:01;;;;;;;19.77;13.00;;;13.60;91.20;;;;;;4944369;28;20447;-78
2022/05/20 16:18:34;;;;;;;16.33;12.15;;;13.60;90.70;;;;;;4960023;28;20034;-80
2022/05/20 16:21:03;;;;;;;21.83;13.45;;;13.50;91.00;;;;;;4944163;28;20379;-75
2022/05/20 16:23:35;;;;;;;18.35;13.20;;;13.50;92.00;;;;;;4944063;28;20038;-72
2022/05/20 16:26:01;;;;;;;20.60;12.77;;;13.50;92.30;;;;;;4944324;28;20039;-71
2022/05/20 16:28:28;;;;;;;21.20;14.07;;;13.50;92.10;;;;;;4944242;28;20046;-73
2022/05/20 16:31:15;;;;;;;17.83;12.15;;;13.50;92.50;;;;;;4944187;28;20125;-76
2022/05/20 16:33:40;;;;;;;19.20;12.90;;;13.60;92.50;;;;;;4959763;28;20054;-72
2022/05/20 16:36:07;;;;;;;18.80;12.43;;;13.70;92.10;;;;;;4943199;28;20042;-72
2022/05/20 16:38:33;;;;;;;;;;;13.80;92.40;;;;;;4960633;28;20050;-73
2022/05/20 16:40:59;;;;;;;15.57;11.63;;;13.90;92.60;;;;;;4943733;28;19968;-72
2022/05/20 16:43:28;;;;;;;17.20;11.93;;;13.90;91.60;;;;;;4943799;28;20117;-74
2022/05/20 16:45:54;;;;;;;19.15;12.52;;;13.90;90.90;;;;;;4959721;28;20035;-73
2022/05/20 16:48:42;;;;;;;16.42;11.60;;;13.90;91.50;;;;;;4943409;28;20042;-72
2022/05/20 16:51:14;;;;;;;18.23;11.00;;;14.00;91.30;;;;;;4976518;28;20046;-72
2022/05/20 16:54:04;;;;;;;16.52;11.45;;;14.00;90.70;;;;;;4959028;28;20054;-73
2022/05/20 17:02:20;;;;;;;20.25;12.77;;;14.20;90.90;;;;;;4958271;28;20051;-72
2022/05/20 17:04:46;;;;;;;23.15;12.07;;;14.40;91.40;;;;;;4975625;28;20074;-74
2022/05/20 17:07:12;;;;;;;21.27;12.65;;;14.60;91.60;;;;;;4975875;28;20133;-74
2022/05/20 17:09:38;;;;;;;13.27;9.95;;;14.80;90.80;;;;;;4942687;28;20122;-74
2022/05/20 17:12:11;;;;;;;17.08;10.00;;;14.80;90.50;;;;;;4958466;28;20067;-77
2022/05/20 17:14:36;;;;;;;14.30;9.95;;;14.90;90.50;;;;;;4939785;28;21018;-71
2022/05/20 17:17:03;;;;;;;12.52;9.90;;;15.00;90.50;;;;;;4966139;28;20177;-74
2022/05/20 17:19:28;;;;;;;15.25;9.50;;;15.10;90.40;;;;;;4958230;28;20039;-73
2022/05/20 17:24:42;;;;;;;16.83;9.05;;;15.20;89.90;;;;;;4979894;28;20057;-75
2022/05/20 17:27:13;;;;;;;14.48;9.20;;;15.10;89.10;;;;;;4962175;28;20065;-74
2022/05/20 17:29:42;;;;;;;21.75;9.45;;;15.00;89.50;;;;;;4968095;28;20101;-74
2022/05/20 17:32:15;;;;;;;16.05;8.88;;;14.90;89.90;;;;;;4963676;28;20126;-73
2022/05/20 17:34:50;;;;;;;16.58;8.93;;;14.90;90.20;;;;;;4962645;28;20446;-73
2022/05/20 17:37:24;;;;;;;13.80;8.60;;;14.80;90.20;;;;;;4967705;28;20380;-76
2022/05/20 17:39:55;;;;;;;17.55;8.57;;;14.80;90.60;;;;;;4931971;28;20035;-72
2022/05/20 17:42:22;;;;;;;16.80;8.32;;;14.70;90.30;;;;;;4962862;28;20039;-72
2022/05/20 17:44:48;;;;;;;13.52;7.28;;;14.60;90.00;;;;;;4941044;28;20070;-73
2022/05/20 17:47:14;;;;;;;16.42;7.20;;;14.50;90.00;;;;;;4973055;28;20065;-73
2022/05/20 17:49:43;;;;;;;11.27;6.00;;;14.40;90.40;;;;;;4949801;28;20094;-74
2022/05/20 17:52:17;;;;;;;14.52;6.63;;;14.30;89.10;;;;;;4948021;28;20047;-73
2022/05/20 17:55:12;;;;;;;15.35;6.78;;;14.20;88.90;;;;;;4968560;28;20096;-79
2022/05/20 17:57:40;;;;;;;12.80;6.50;;;14.10;89.80;;;;;;4952258;28;20446;-78
2022/05/20 18:00:08;;;;;;;17.00;6.88;;;14.10;89.40;;;;;;4949152;28;20137;-77
2022/05/20 18:02:34;;;;;;;16.40;7.57;;;14.00;90.10;;;;;;4950210;28;20085;-74
2022/05/20 18:05:03;;;;;;;15.00;6.70;;;13.90;90.30;;;;;;4963487;28;20124;-78
2022/05/20 18:07:29;;;;;;;15.00;6.93;;;13.90;90.30;;;;;;4944711;28;20038;-74
2022/05/20 18:09:59;;;;;;;15.25;7.32;;;13.90;90.30;;;;;;4967987;28;20047;-75
2022/05/20 18:12:28;;;;;;;13.63;7.28;;;13.80;90.60;;;;;;4947865;28;20034;-75
2022/05/20 18:14:54;;;;;;;17.23;7.70;;;13.80;90.60;;;;;;4944179;28;20035;-76
2022/05/20 18:17:21;;;;;;;;;;;13.80;90.80;;;;;;4969333;28;20517;-71
2022/05/20 18:19:47;;;;;;;18.73;8.77;;;13.80;90.80;;;;;;4962138;28;19918;-74
2022/05/20 18:22:15;;;;;;;14.45;6.50;;;13.50;91.50;;;;;;4957585;28;20035;-80
2022/05/20 18:24:47;;;;;;;10.80;4.47;;;13.20;91.60;;;;;;4947498;28;20039;-70
2022/05/20 18:27:15;;;;;;;10.20;4.18;;;13.10;91.90;;;;;;4947146;28;20475;-73
2022/05/20 18:29:42;;;;;;;6.90;2.97;;;12.90;92.60;;;;;;4951261;28;20046;-72
2022/05/20 18:32:11;;;;;;;7.50;2.00;;;12.80;92.20;;;;;;4943790;29;20432;-74
2022/05/20 18:40:07;;;;;;;4.38;1.58;;;12.50;92.50;;;;;;4948128;28;20097;-75
2022/05/20 18:42:33;;;;;;;;;;;12.40;92.60;;;;;;4933391;28;20117;-73
2022/05/20 18:44:58;;;;;;;4.07;1.70;;;12.30;93.30;;;;;;4938668;28;19918;-74
2022/05/20 18:47:28;;;;;;;5.05;1.77;;;12.30;93.00;;;;;;4948917;28;20055;-76
2022/05/20 18:49:58;;;;;;;6.75;2.00;;;12.30;92.70;;;;;;4945320;28;20039;-74
2022/05/20 18:52:27;;;;;;;7.28;1.88;;;12.20;92.70;;;;;;4961223;28;20039;-76
2022/05/20 18:54:54;;;;;;;5.40;2.20;;;12.20;92.60;;;;;;4928604;28;20039;-76
2022/05/20 18:57:23;;;;;;;6.28;2.92;;;12.10;93.10;;;;;;4925086;28;20050;-76
2022/05/20 18:59:55;;;;;;;4.15;1.65;;;12.10;93.20;;;;;;4933901;28;20045;-77
2022/05/20 19:02:45;;;;;;;7.85;2.10;;;12.10;92.90;;;;;;4909923;28;20035;-77
2022/05/20 19:05:17;;;;;;;6.40;2.60;;;12.10;93.20;;;;;;4923106;28;20044;-76
2022/05/20 19:07:43;;;;;;;5.22;2.47;;;12.10;92.90;;;;;;4939060;28;20045;-74
2022/05/20 19:10:13;;;;;;;6.13;2.78;;;12.20;93.40;;;;;;4944033;28;20031;-74
2022/05/20 19:12:40;;;;;;;5.88;2.90;;;12.20;93.60;;;;;;4943599;28;20357;-74
2022/05/20 19:15:12;;;;;;;8.45;3.13;;;12.20;93.00;;;;;;4935813;28;20348;-77
2022/05/20 19:17:46;;;;;;;10.40;3.70;;;12.10;92.80;;;;;;4926196;28;20050;-75
2022/05/20 19:20:15;;;;;;;6.45;3.45;;;12.10;93.40;;;;;;4921208;28;20066;-74
2022/05/20 19:22:41;;;;;;;8.18;3.00;;;12.10;93.80;;;;;;4921920;28;20043;-74
2022/05/20 19:25:07;;;;;;;7.53;2.55;;;12.20;93.30;;;;;;4939989;28;20357;-74
2022/05/20 19:27:33;;;;;;;7.03;2.40;;;12.10;93.80;;;;;;4924985;28;20031;-74
2022/05/20 19:29:59;;;;;;;10.52;2.17;;;12.00;93.40;;;;;;4958691;28;20035;-74
2022/05/20 19:32:25;;;;;;;6.50;2.42;;;11.90;94.00;;;;;;4933589;28;20140;-75
2022/05/20 19:34:51;;;;;;;5.60;2.25;;;11.90;93.40;;;;;;4925374;28;20027;-77
2022/05/20 19:37:17;;;;;;;5.70;2.00;;;11.90;93.60;;;;;;4932672;28;20043;-77
2022/05/20 19:39:54;;;;;;;8.15;2.17;;;11.90;93.70;;;;;;4927712;28;20069;-78
2022/05/20 19:42:20;;;;;;;8.30;2.00;;;11.90;93.40;;;;;;4934671;28;20077;-76
2022/05/20 19:44:46;;;;;;;8.25;2.45;;;11.80;93.70;;;;;;4941780;28;20078;-76
2022/05/20 19:47:12;;;;;;;7.18;2.20;;;11.90;93.80;;;;;;4937454;28;20043;-76
2022/05/20 19:49:38;;;;;;;9.40;2.42;;;11.80;93.80;;;;;;4917479;28;20031;-77
2022/05/20 19:52:12;;;;;;;;;;;11.80;93.80;;;;;;4941505;29;20507;-79
2022/05/20 19:55:31;;;;;;;7.38;2.20;;;11.80;94.10;;;;;;4935019;28;20367;-78
2022/05/20 20:01:15;;;;;;;4.75;1.90;;;11.70;93.60;;;;;;4960388;28;20053;-77
2022/05/20 20:04:14;;;;;;;10.70;2.50;;;11.70;93.20;;;;;;4929907;29;20501;-78
2022/05/20 20:07:05;;;;;;;6.25;2.20;;;11.60;93.60;;;;;;4929146;28;20054;-77
2022/05/20 20:10:00;;;;;;;6.65;2.42;;;11.60;93.90;;;;;;4905266;28;20087;-76
2022/05/20 20:12:44;;;;;;;9.48;2.30;;;11.50;93.60;;;;;;4938356;29;20058;-77
2022/05/20 20:15:11;;;;;;;6.85;2.88;;;11.50;93.30;;;;;;4934519;29;20034;-76
2022/05/20 20:17:37;;;;;;;6.97;2.85;;;11.50;93.30;;;;;;4940296;28;20074;-71
2022/05/20 20:20:07;;;;;;;7.47;2.80;;;11.50;93.80;;;;;;4930275;29;20121;-77
2022/05/20 20:28:01;;;;;;;9.15;3.10;;;11.50;94.00;;;;;;4945370;29;20065;-78
2022/05/20 20:30:27;;;;;;;8.10;3.00;;;11.70;94.10;;;;;;4943768;28;20039;-78
2022/05/20 20:32:53;;;;;;;9.95;3.30;;;11.60;93.90;;;;;;4940684;28;20050;-78
2022/05/20 20:35:19;;;;;;;11.40;3.70;;;11.50;94.30;;;;;;4936756;28;20042;-77
2022/05/20 20:37:45;;;;;;;11.63;3.30;;;11.50;94.00;;;;;;4940607;28;20479;-75
2022/05/20 20:40:13;;;;;;;14.43;3.40;;;11.50;93.90;;;;;;4928869;29;20303;-78
2022/05/20 20:42:39;;;;;;;9.40;3.60;;;11.40;93.70;;;;;;4928076;28;20118;-75
2022/05/20 20:45:07;;;;;;;10.23;3.20;;;11.40;93.80;;;;;;4956209;28;20042;-76
2022/05/20 20:47:34;;;;;;;11.05;3.00;;;11.40;94.00;;;;;;4935283;28;20372;-77
2022/05/20 20:50:00;;;;;;;9.40;2.90;;;11.40;93.80;;;;;;4954198;28;20035;-75
2022/05/20 20:52:55;;;;;;;10.18;3.20;;;11.30;93.60;;;;;;4967174;28;20058;-80
2022/05/20 20:55:52;;;;;;;11.40;3.08;;;11.30;93.90;;;;;;4935873;28;20046;-82
2022/05/20 20:58:18;;;;;;;9.88;2.60;;;11.30;93.80;;;;;;4934477;28;20046;-79
2022/05/20 21:00:46;;;;;;;9.57;3.00;;;11.20;93.60;;;;;;4943645;28;20034;-78
2022/05/20 21:03:17;;;;;;;11.07;2.78;;;11.20;93.50;;;;;;4938918;28;20035;-75
2022/05/20 21:05:43;;;;;;;7.13;2.40;;;11.20;93.30;;;;;;4928367;28;20043;-76
2022/05/20 21:08:09;;;;;;;6.82;2.55;;;11.10;93.20;;;;;;4931994;28;20066;-76
2022/05/20 21:10:36;;;;;;;12.40;3.22;;;11.10;93.30;;;;;;4930562;28;20035;-76
2022/05/20 21:13:04;;;;;;;14.32;3.00;;;11.10;93.20;;;;;;4932626;28;20039;-81
2022/05/20 21:15:32;;;;;;;7.60;3.03;;;11.00;93.10;;;;;;4927156;28;20070;-76
2022/05/20 21:18:00;;;;;;;8.95;2.92;;;11.00;93.30;;;;;;4933480;28;20031;-80
2022/05/20 21:20:27;;;;;;;8.05;3.20;;;10.90;93.60;;;;;;4935318;28;20115;-78
2022/05/20 21:22:53;;;;;;;11.77;3.55;;;10.90;93.50;;;;;;4939252;29;20082;-80
2022/05/20 21:25:28;;;;;;;17.48;5.45;;;10.90;93.90;;;;;;4935482;29;20039;-80
2022/05/20 21:28:01;;;;;;;8.50;3.80;;;10.80;93.50;;;;;;4931962;29;20039;-81
2022/05/20 21:30:29;;;;;;;15.18;4.50;;;10.80;93.70;;;;;;4936270;29;20114;-82
2022/05/20 21:32:59;;;;;;;11.75;5.47;;;10.70;93.50;;;;;;4933034;29;20412;-80
